KEMP/EMP METAR and TAF weather

Enter ICAO airport designator
Station Type Date Time Source
KEMP METAR 2022/12/05 13:53 UTC NOAA

KEMP 051353Z AUTO 16009KT 1/4SM FG OVC002 02/01 A2979 RMK AO2 SLP098 T00170006


Station Type Date Time Source
KEMP Decoded METAR 2022/12/05 13:53 UTC NOAA

EMPORIA MUNICIPAL AIRPORT, KS, United States (KEMP) 38-20N 96-12W 367M
Dec 05, 2022 - 08:53 AM EST / 2022.12.05 1353 UTC
Wind: from the SSE (160 degrees) at 10 MPH (9 KT):0
Visibility: 1/4 mile(s):0
Sky conditions: overcast
Weather: fog
Temperature: 35.1 F (1.7 C)
Dew Point: 33.1 F (0.6 C)
Relative Humidity: 92%
Pressure (altimeter): 29.79 in. Hg (1008 hPa)
ob: KEMP 051353Z AUTO 16009KT 1/4SM FG OVC002 02/01 A2979 RMK AO2 SLP098 T00170006
cycle: 14

Station Type Date Time Source
KEMP TAF UTC NOAA

Error!

Example: see airport list